Time;durP1;ratioP1;P1;durP2;ratioP2;P2;SDS_P1;SDS_P2;PMS_P1;PMS_P2;Temp;Humidity;BMP_temperature;BMP_pressure;BME280_temperature;BME280_humidity;BME280_pressure;Samples;Min_cycle;Max_cycle;Signal;HPM_P1;HPM_P2
2023/03/23 00:01:49;;;;;;;19.87;2.77;;;9.80;99.90;;;;;;4993593;28;20211;-72
2023/03/23 00:04:16;;;;;;;18.83;2.50;;;10.20;99.90;;;;;;4994032;28;20187;-73
2023/03/23 00:06:45;;;;;;;16.20;2.27;;;9.80;99.90;;;;;;4994505;28;20182;-71
2023/03/23 00:09:11;;;;;;;16.87;2.60;;;;;;;;;;4993777;28;20174;-73
2023/03/23 00:11:36;;;;;;;12.47;2.17;;;9.80;99.90;;;;;;4994063;28;20183;-71
2023/03/23 00:14:02;;;;;;;12.93;2.20;;;9.70;99.90;;;;;;4994142;28;20230;-72
2023/03/23 00:16:32;;;;;;;14.70;2.47;;;9.70;99.90;;;;;;4993853;28;20654;-72
2023/03/23 00:19:01;;;;;;;18.80;2.23;;;9.60;99.90;;;;;;4994779;28;20175;-72
2023/03/23 00:21:33;;;;;;;20.73;3.00;;;9.70;99.90;;;;;;4994035;28;20211;-71
2023/03/23 00:24:06;;;;;;;23.33;3.30;;;9.70;99.90;;;;;;4993050;28;20281;-72
2023/03/23 00:26:39;;;;;;;19.67;2.50;;;9.60;99.90;;;;;;4994130;28;20305;-73
2023/03/23 00:29:05;;;;;;;26.17;3.40;;;;;;;;;;4993633;28;20182;-72
2023/03/23 00:31:32;;;;;;;19.27;2.70;;;9.60;99.90;;;;;;4992892;28;20176;-72
2023/03/23 00:34:03;;;;;;;17.60;3.03;;;9.60;99.90;;;;;;4992917;28;20242;-72
2023/03/23 00:36:31;;;;;;;21.20;2.67;;;9.60;99.90;;;;;;4992950;28;20186;-72
2023/03/23 00:39:01;;;;;;;22.93;2.93;;;9.60;99.90;;;;;;4993613;28;20240;-72
2023/03/23 00:41:28;;;;;;;19.77;3.10;;;9.60;99.90;;;;;;4992804;28;20218;-71
2023/03/23 00:43:57;;;;;;;18.63;2.47;;;9.50;99.90;;;;;;4992496;28;20176;-71
2023/03/23 00:46:24;;;;;;;17.33;2.40;;;9.50;99.90;;;;;;4993089;28;20187;-71
2023/03/23 00:48:51;;;;;;;8.77;1.43;;;9.50;99.90;;;;;;4993049;28;20186;-72
2023/03/23 00:51:18;;;;;;;20.27;3.13;;;9.50;99.90;;;;;;4993516;28;20178;-76
2023/03/23 00:53:45;;;;;;;16.53;2.53;;;9.60;99.90;;;;;;4993473;28;20175;-75
2023/03/23 00:56:11;;;;;;;21.47;3.23;;;9.50;99.90;;;;;;4993084;28;20242;-76
2023/03/23 00:58:37;;;;;;;22.43;2.93;;;;;;;;;;4993294;28;20211;-75
2023/03/23 01:01:03;;;;;;;23.47;2.20;;;9.50;99.90;;;;;;4993365;28;20238;-75
2023/03/23 01:03:29;;;;;;;18.13;3.13;;;9.50;99.90;;;;;;4994020;28;20179;-76
2023/03/23 01:05:55;;;;;;;21.63;3.00;;;9.50;99.90;;;;;;4992209;28;20177;-76
2023/03/23 01:08:22;;;;;;;25.50;3.27;;;10.30;99.90;;;;;;4992752;28;20179;-76
2023/03/23 01:10:49;;;;;;;19.47;2.50;;;;;;;;;;4993317;28;20171;-76
2023/03/23 01:13:15;;;;;;;16.27;2.13;;;9.50;99.90;;;;;;4980778;28;20658;-75
2023/03/23 01:15:42;;;;;;;19.67;3.10;;;9.60;99.90;;;;;;4991114;28;20275;-76
2023/03/23 01:18:09;;;;;;;19.30;2.77;;;9.50;99.90;;;;;;4993335;28;20222;-76
2023/03/23 01:20:36;;;;;;;15.07;2.00;;;9.50;99.90;;;;;;4993296;28;20646;-76
2023/03/23 01:23:02;;;;;;;13.67;2.07;;;9.30;99.90;;;;;;4993363;28;20179;-76
2023/03/23 01:25:35;;;;;;;7.00;1.50;;;9.40;99.90;;;;;;4992511;28;20262;-77
2023/03/23 01:28:00;;;;;;;16.27;2.40;;;9.40;99.90;;;;;;4991894;28;20175;-76
2023/03/23 01:30:26;;;;;;;22.53;2.57;;;9.40;99.90;;;;;;4992048;28;20198;-77
2023/03/23 01:32:52;;;;;;;16.20;2.90;;;9.30;99.90;;;;;;4993307;28;20254;-78
2023/03/23 01:35:18;;;;;;;18.80;3.13;;;9.30;99.90;;;;;;4994738;28;20291;-89
2023/03/23 01:37:45;;;;;;;17.67;2.60;;;;;;;;;;4993710;28;20183;-85
2023/03/23 01:40:11;;;;;;;20.10;3.00;;;9.20;99.90;;;;;;4993448;28;20254;-85
2023/03/23 01:42:38;;;;;;;15.53;2.43;;;9.20;99.90;;;;;;5002288;28;20260;-90
2023/03/23 01:45:19;;;;;;;21.93;2.67;;;9.40;99.90;;;;;;4993397;28;20229;-86
2023/03/23 01:47:52;;;;;;;18.20;2.87;;;9.00;99.90;;;;;;5004408;28;20189;-85
2023/03/23 01:50:22;;;;;;;22.60;2.87;;;9.10;99.90;;;;;;4997478;28;20194;-84
2023/03/23 01:52:49;;;;;;;22.03;3.07;;;9.00;99.90;;;;;;5005855;28;20210;-85
2023/03/23 01:55:15;;;;;;;22.77;3.03;;;9.40;99.90;;;;;;5006466;28;20172;-84
2023/03/23 01:57:41;;;;;;;18.83;2.50;;;9.00;99.90;;;;;;5009118;28;20186;-86
2023/03/23 02:00:15;;;;;;;27.23;3.47;;;9.30;99.90;;;;;;5004205;28;20186;-86
2023/03/23 02:02:43;;;;;;;22.07;3.53;;;9.00;99.90;;;;;;5003494;28;20199;-85
2023/03/23 02:05:13;;;;;;;12.03;1.93;;;9.00;99.90;;;;;;4980923;28;20226;-88
2023/03/23 02:07:39;;;;;;;22.30;2.43;;;9.00;99.90;;;;;;4998477;28;20180;-82
2023/03/23 02:10:05;;;;;;;10.40;1.97;;;9.00;99.90;;;;;;4997196;28;20179;-82
2023/03/23 02:12:31;;;;;;;20.13;4.23;;;9.00;99.90;;;;;;4997949;28;20175;-85
2023/03/23 02:14:56;;;;;;;20.67;2.90;;;8.70;99.90;;;;;;4984374;28;20544;-86
2023/03/23 02:17:35;;;;;;;19.70;2.90;;;8.80;99.90;;;;;;5002016;28;20182;-83
2023/03/23 02:20:30;;;;;;;19.63;2.97;;;9.00;99.90;;;;;;5006268;28;20241;-93
2023/03/23 02:23:17;;;;;;;18.37;2.63;;;8.90;99.90;;;;;;5017500;28;20199;-92
2023/03/23 02:25:58;;;;;;;18.50;2.83;;;8.70;99.90;;;;;;5017436;28;20159;-93
2023/03/23 02:28:43;;;;;;;26.03;2.10;;;8.90;99.90;;;;;;5016521;28;20186;-89
2023/03/23 02:31:21;;;;;;;16.13;2.47;;;9.00;99.90;;;;;;5018221;28;20155;-94
2023/03/23 02:34:00;;;;;;;20.93;2.93;;;8.80;99.90;;;;;;5017122;28;20210;-91
2023/03/23 02:36:37;;;;;;;26.80;2.77;;;9.00;99.90;;;;;;5017597;28;20222;-95
2023/03/23 02:39:03;;;;;;;16.57;2.80;;;;;;;;;;5001471;28;20171;-94
2023/03/23 02:41:35;;;;;;;19.83;3.00;;;8.90;99.90;;;;;;5001398;28;20218;-95
2023/03/23 02:44:03;;;;;;;23.33;2.97;;;8.80;99.90;;;;;;5017715;28;20191;-91
2023/03/23 02:46:30;;;;;;;22.87;3.23;;;8.90;99.90;;;;;;5018177;28;20173;-92
2023/03/23 02:48:58;;;;;;;21.33;2.90;;;8.10;99.90;;;;;;5018077;28;20190;-95
2023/03/23 02:51:25;;;;;;;24.13;3.40;;;8.80;99.90;;;;;;5018198;28;20175;-91
2023/03/23 02:53:54;;;;;;;20.60;2.80;;;8.60;99.90;;;;;;5002002;28;20183;-94
2023/03/23 02:56:23;;;;;;;25.43;2.80;;;8.80;99.90;;;;;;4996799;28;20233;-94
2023/03/23 02:58:49;;;;;;;18.57;2.90;;;8.80;99.90;;;;;;4994110;28;20206;-93
2023/03/23 03:01:32;;;;;;;24.67;3.27;;;8.70;99.90;;;;;;4998192;28;20218;-93
2023/03/23 03:04:00;;;;;;;17.73;3.27;;;8.70;99.90;;;;;;4996335;28;20185;-79
2023/03/23 03:06:48;;;;;;;16.63;2.73;;;9.00;99.90;;;;;;4990515;28;20551;-85
2023/03/23 03:09:50;;;;;;;18.90;2.50;;;8.70;99.90;;;;;;4991243;28;20199;-84
2023/03/23 03:12:28;;;;;;;24.00;2.70;;;8.70;99.90;;;;;;4991466;28;20262;-86
2023/03/23 03:15:14;;;;;;;14.00;2.47;;;9.70;99.90;;;;;;4991428;28;20194;-86
2023/03/23 03:17:49;;;;;;;22.93;2.83;;;8.60;99.90;;;;;;4992438;28;20269;-89
2023/03/23 03:20:15;;;;;;;12.73;1.47;;;;;;;;;;4991011;28;20171;-84
2023/03/23 03:22:43;;;;;;;23.80;3.00;;;8.60;99.90;;;;;;4990999;28;20273;-85
2023/03/23 03:25:13;;;;;;;22.80;3.37;;;9.20;99.90;;;;;;4992038;28;20176;-84
2023/03/23 03:27:40;;;;;;;24.20;2.77;;;8.60;99.90;;;;;;4979495;28;20187;-84
2023/03/23 03:30:11;;;;;;;21.73;2.23;;;8.70;99.90;;;;;;4957689;28;20638;-86
2023/03/23 03:32:50;;;;;;;18.73;1.83;;;8.70;99.90;;;;;;4991543;28;20206;-87
2023/03/23 03:35:17;;;;;;;19.00;2.53;;;8.60;99.90;;;;;;4992715;28;20226;-86
2023/03/23 03:37:44;;;;;;;23.23;3.17;;;8.70;99.90;;;;;;4995219;28;20169;-83
2023/03/23 03:40:18;;;;;;;19.63;2.40;;;8.60;99.90;;;;;;4993421;28;20167;-81
2023/03/23 03:42:45;;;;;;;16.37;2.10;;;8.60;99.90;;;;;;4980722;28;20210;-81
2023/03/23 03:45:18;;;;;;;16.93;2.27;;;8.20;99.90;;;;;;4994633;28;20171;-80
2023/03/23 03:47:44;;;;;;;17.13;2.60;;;;;;;;;;4994930;28;20217;-81
2023/03/23 03:50:10;;;;;;;24.80;3.17;;;8.60;99.90;;;;;;4994452;28;20163;-83
2023/03/23 03:52:38;;;;;;;4.03;0.90;;;9.00;99.90;;;;;;4990628;28;20303;-79
2023/03/23 03:55:05;;;;;;;20.47;2.13;;;8.50;99.90;;;;;;4994129;28;20175;-82
2023/03/23 03:57:30;;;;;;;15.77;2.50;;;8.40;99.90;;;;;;4994686;28;20183;-81
2023/03/23 03:59:56;;;;;;;9.63;1.93;;;8.50;99.90;;;;;;4978536;28;20258;-82
2023/03/23 04:02:22;;;;;;;17.40;2.40;;;8.50;99.90;;;;;;4993791;28;20223;-82
2023/03/23 04:04:48;;;;;;;18.07;2.60;;;8.40;99.90;;;;;;4994241;28;20179;-82
2023/03/23 04:07:16;;;;;;;22.63;3.23;;;8.00;99.90;;;;;;4993036;28;20182;-84
2023/03/23 04:09:48;;;;;;;17.60;1.93;;;8.60;99.90;;;;;;4994373;28;20231;-90
2023/03/23 04:12:15;;;;;;;15.57;2.80;;;8.50;99.90;;;;;;4994572;28;20198;-89
2023/03/23 04:14:41;;;;;;;18.70;2.63;;;8.50;99.90;;;;;;4995253;28;20242;-85
2023/03/23 04:17:08;;;;;;;16.00;2.30;;;8.50;99.90;;;;;;4995217;28;20218;-88
2023/03/23 04:19:36;;;;;;;15.63;2.60;;;8.60;99.90;;;;;;4995429;28;20175;-90
2023/03/23 04:22:03;;;;;;;14.77;3.17;;;8.50;99.90;;;;;;4994480;28;20238;-92
2023/03/23 04:24:32;;;;;;;15.37;2.57;;;8.80;99.90;;;;;;4995459;28;20178;-90
2023/03/23 04:26:57;;;;;;;21.40;2.80;;;8.10;99.90;;;;;;4994815;28;20218;-90
2023/03/23 04:29:23;;;;;;;21.73;3.10;;;8.30;99.90;;;;;;4995007;28;20198;-89
2023/03/23 04:31:50;;;;;;;14.40;2.63;;;8.50;99.90;;;;;;4976882;28;20571;-89
2023/03/23 04:34:17;;;;;;;17.33;2.47;;;8.50;99.90;;;;;;4988997;28;20230;-79
2023/03/23 04:36:43;;;;;;;21.67;2.70;;;8.40;99.90;;;;;;4994198;28;20266;-78
2023/03/23 04:39:09;;;;;;;16.53;2.33;;;8.40;99.90;;;;;;4993877;28;20254;-77
2023/03/23 04:41:39;;;;;;;23.87;2.83;;;8.30;99.90;;;;;;4994125;28;20207;-77
2023/03/23 04:44:05;;;;;;;21.83;2.30;;;8.20;99.90;;;;;;4976033;28;20184;-78
2023/03/23 04:46:31;;;;;;;21.87;3.00;;;8.50;99.90;;;;;;4993441;28;20240;-78
2023/03/23 04:49:01;;;;;;;18.80;2.93;;;8.20;99.90;;;;;;4993214;28;20183;-76
2023/03/23 04:51:29;;;;;;;24.90;2.83;;;8.20;99.90;;;;;;4993918;28;20171;-75
2023/03/23 04:53:55;;;;;;;21.43;2.50;;;8.20;99.90;;;;;;4975649;28;20198;-75
2023/03/23 04:56:20;;;;;;;18.50;2.47;;;8.20;99.90;;;;;;4992699;28;20198;-75
2023/03/23 04:58:46;;;;;;;22.27;3.20;;;8.20;99.90;;;;;;4986719;28;20183;-75
2023/03/23 05:01:17;;;;;;;25.53;2.50;;;8.20;99.90;;;;;;4993099;28;20222;-74
2023/03/23 05:03:43;;;;;;;22.97;2.57;;;8.30;99.90;;;;;;4992898;28;20210;-74
2023/03/23 05:06:10;;;;;;;24.47;3.53;;;8.20;99.90;;;;;;4992518;28;20186;-75
2023/03/23 05:08:38;;;;;;;21.93;2.43;;;8.30;99.90;;;;;;4992638;28;20310;-74
2023/03/23 05:11:05;;;;;;;23.83;3.03;;;8.30;99.90;;;;;;4992314;28;20168;-75
2023/03/23 05:13:31;;;;;;;23.17;2.50;;;8.20;99.90;;;;;;4992276;28;20170;-74
2023/03/23 05:15:57;;;;;;;13.73;2.00;;;8.20;99.90;;;;;;4973765;28;20537;-75
2023/03/23 05:18:22;;;;;;;20.03;3.23;;;8.30;99.90;;;;;;4992425;28;20191;-74
2023/03/23 05:20:48;;;;;;;34.10;3.40;;;8.30;99.90;;;;;;4992329;28;20666;-75
2023/03/23 05:23:15;;;;;;;23.77;3.17;;;8.30;99.90;;;;;;4991584;28;20657;-75
2023/03/23 05:25:41;;;;;;;31.27;3.70;;;;;;;;;;4992135;28;20708;-75
2023/03/23 05:28:11;;;;;;;16.43;2.67;;;8.50;99.90;;;;;;4993131;28;20642;-74
2023/03/23 05:30:38;;;;;;;25.80;4.00;;;8.50;99.90;;;;;;4992915;28;20627;-75
2023/03/23 05:33:04;;;;;;;26.20;3.00;;;8.60;99.90;;;;;;4992680;28;20186;-75
2023/03/23 05:35:30;;;;;;;18.47;2.97;;;;;;;;;;4992209;28;20261;-74
2023/03/23 05:37:56;;;;;;;18.97;3.17;;;8.60;99.90;;;;;;4992649;28;20631;-74
2023/03/23 05:40:25;;;;;;;23.03;3.17;;;8.90;99.90;;;;;;4992268;28;20210;-74
2023/03/23 05:42:51;;;;;;;18.97;2.73;;;8.70;99.90;;;;;;4991900;28;20219;-74
2023/03/23 05:45:17;;;;;;;22.50;3.33;;;8.70;99.90;;;;;;4992024;28;20175;-75
2023/03/23 05:47:43;;;;;;;21.07;3.23;;;8.80;99.90;;;;;;4992355;28;20179;-75
2023/03/23 05:50:10;;;;;;;33.30;3.53;;;8.80;99.90;;;;;;4992432;28;20657;-84
2023/03/23 05:52:36;;;;;;;14.17;2.40;;;8.80;99.90;;;;;;4992503;28;20168;-86
2023/03/23 05:55:03;;;;;;;11.40;1.70;;;9.60;99.90;;;;;;4992324;28;20238;-85
2023/03/23 05:57:30;;;;;;;30.97;3.57;;;8.90;99.90;;;;;;4993112;28;20210;-86
2023/03/23 05:59:57;;;;;;;26.80;3.70;;;9.00;99.90;;;;;;4990214;28;20175;-85
2023/03/23 06:02:23;;;;;;;15.13;2.53;;;;;;;;;;4993146;28;20292;-87
2023/03/23 06:04:50;;;;;;;24.47;2.50;;;9.00;99.90;;;;;;4992943;28;20326;-86
2023/03/23 06:07:18;;;;;;;29.10;3.90;;;9.10;99.90;;;;;;4992410;28;20258;-86
2023/03/23 06:09:43;;;;;;;16.93;2.70;;;11.00;99.90;;;;;;4993170;28;20179;-86
2023/03/23 06:12:09;;;;;;;22.40;3.33;;;9.20;99.90;;;;;;4992304;28;20187;-86
2023/03/23 06:14:36;;;;;;;27.33;3.80;;;9.20;99.90;;;;;;4975840;28;20196;-88
2023/03/23 06:17:02;;;;;;;27.60;3.80;;;9.30;99.90;;;;;;4993149;28;20665;-88
2023/03/23 06:19:28;;;;;;;27.47;3.27;;;9.30;99.90;;;;;;4976583;28;20642;-87
2023/03/23 06:21:55;;;;;;;26.03;4.03;;;8.90;99.90;;;;;;4993842;28;20218;-89
2023/03/23 06:24:21;;;;;;;31.87;3.53;;;9.20;99.90;;;;;;4992470;28;20229;-78
2023/03/23 06:26:47;;;;;;;36.40;3.93;;;;;;;;;;4990623;28;20842;-77
2023/03/23 06:29:13;;;;;;;29.10;3.63;;;9.30;99.90;;;;;;4991638;28;20187;-77
2023/03/23 06:31:46;;;;;;;15.83;1.87;;;9.40;99.90;;;;;;4991581;28;20183;-78
2023/03/23 06:34:12;;;;;;;29.40;4.17;;;9.10;99.90;;;;;;4985544;28;20218;-74
2023/03/23 06:36:38;;;;;;;33.67;3.63;;;11.10;99.90;;;;;;4985680;28;20221;-75
2023/03/23 06:39:04;;;;;;;25.60;3.30;;;9.50;99.90;;;;;;4974015;28;20182;-76
2023/03/23 06:41:33;;;;;;;30.43;4.50;;;9.30;99.90;;;;;;4988607;28;20207;-75
2023/03/23 06:44:00;;;;;;;26.07;3.20;;;9.70;99.90;;;;;;4990737;28;20265;-79
2023/03/23 06:46:26;;;;;;;29.80;4.80;;;9.70;99.90;;;;;;4990486;28;20175;-80
2023/03/23 06:48:52;;;;;;;33.67;4.37;;;9.80;99.90;;;;;;4991364;28;20194;-82
2023/03/23 06:51:18;;;;;;;38.07;4.80;;;9.80;99.90;;;;;;4991962;28;20638;-83
2023/03/23 06:53:44;;;;;;;28.80;4.33;;;9.80;99.90;;;;;;4992298;28;20186;-86
2023/03/23 06:56:12;;;;;;;40.90;5.10;;;9.80;99.90;;;;;;4991108;28;20184;-83
2023/03/23 06:58:39;;;;;;;24.10;3.90;;;10.20;99.90;;;;;;4990656;28;20175;-82
2023/03/23 07:01:05;;;;;;;32.57;3.43;;;9.90;99.90;;;;;;4991071;28;20234;-83
2023/03/23 07:03:31;;;;;;;31.57;4.00;;;9.90;99.90;;;;;;4982195;28;20183;-85
2023/03/23 07:05:58;;;;;;;40.00;5.60;;;10.40;99.90;;;;;;4974109;28;20206;-86
2023/03/23 07:08:24;;;;;;;24.50;3.60;;;10.00;99.90;;;;;;4974020;28;20169;-75
2023/03/23 07:10:54;;;;;;;27.00;4.33;;;10.10;99.90;;;;;;4988897;28;20167;-77
2023/03/23 07:13:20;;;;;;;34.17;4.53;;;10.90;99.90;;;;;;4990075;28;20191;-77
2023/03/23 07:15:46;;;;;;;43.67;4.70;;;10.40;99.90;;;;;;4991183;28;20187;-77
2023/03/23 07:18:12;;;;;;;32.67;4.53;;;10.70;99.90;;;;;;4991280;28;20179;-77
2023/03/23 07:20:37;;;;;;;35.13;4.60;;;10.60;99.90;;;;;;4991413;28;20183;-76
2023/03/23 07:23:05;;;;;;;29.77;3.67;;;10.90;99.90;;;;;;4991026;28;20217;-79
2023/03/23 07:25:32;;;;;;;35.37;4.67;;;10.70;99.90;;;;;;4991461;28;20330;-74
2023/03/23 07:27:59;;;;;;;27.83;3.90;;;10.70;99.90;;;;;;4990865;28;20183;-77
2023/03/23 07:30:26;;;;;;;24.83;3.73;;;10.70;99.90;;;;;;4990733;28;20688;-74
2023/03/23 07:32:52;;;;;;;32.83;4.70;;;11.00;99.90;;;;;;4991035;28;20176;-75
2023/03/23 07:35:17;;;;;;;15.37;2.33;;;10.80;99.90;;;;;;4991072;28;20229;-75
2023/03/23 07:37:43;;;;;;;27.20;4.77;;;10.90;99.90;;;;;;4990669;28;20171;-74
2023/03/23 07:40:18;;;;;;;28.40;3.13;;;10.90;99.90;;;;;;4991285;28;20179;-73
2023/03/23 07:42:46;;;;;;;15.93;2.03;;;11.10;99.90;;;;;;4991243;28;20693;-75
2023/03/23 07:45:13;;;;;;;23.97;3.37;;;11.20;99.90;;;;;;4991158;28;20178;-73
2023/03/23 07:47:41;;;;;;;23.83;3.43;;;11.20;99.90;;;;;;4991496;28;20179;-73
2023/03/23 07:50:08;;;;;;;28.73;4.43;;;11.20;99.90;;;;;;4990980;28;20206;-71
2023/03/23 07:52:36;;;;;;;25.53;3.97;;;11.20;99.90;;;;;;4989999;28;20202;-69
2023/03/23 07:55:03;;;;;;;21.53;3.53;;;11.30;99.90;;;;;;4973323;28;20187;-70
2023/03/23 07:57:30;;;;;;;22.43;3.70;;;11.50;99.90;;;;;;4989385;28;20183;-72
2023/03/23 07:59:56;;;;;;;25.27;4.00;;;11.60;99.90;;;;;;4989541;28;20226;-71
2023/03/23 08:02:23;;;;;;;32.70;4.23;;;11.60;99.90;;;;;;4990815;28;20273;-71
2023/03/23 08:04:49;;;;;;;17.67;3.20;;;11.50;99.90;;;;;;4989769;28;20175;-74
2023/03/23 08:07:16;;;;;;;23.23;3.60;;;11.80;99.90;;;;;;4990287;28;20195;-74
2023/03/23 08:09:42;;;;;;;29.30;4.63;;;11.60;99.90;;;;;;4989880;28;20187;-74
2023/03/23 08:12:08;;;;;;;30.87;4.30;;;11.80;99.90;;;;;;4989648;28;20208;-72
2023/03/23 08:14:34;;;;;;;23.33;2.83;;;11.90;99.90;;;;;;4989338;28;20219;-72
2023/03/23 08:17:00;;;;;;;26.77;3.97;;;11.90;99.90;;;;;;4989482;28;20205;-70
2023/03/23 08:19:26;;;;;;;21.07;2.80;;;12.00;99.90;;;;;;4990714;28;20647;-72
2023/03/23 08:21:52;;;;;;;30.63;3.70;;;12.00;99.90;;;;;;4990263;28;20222;-72
2023/03/23 08:24:18;;;;;;;28.97;3.27;;;12.00;99.90;;;;;;4993618;28;20233;-73
2023/03/23 08:26:44;;;;;;;29.80;4.97;;;12.20;99.90;;;;;;4993864;28;20273;-71
2023/03/23 08:29:10;;;;;;;19.27;3.20;;;12.40;99.90;;;;;;4975604;28;20693;-75
2023/03/23 08:31:37;;;;;;;28.17;4.20;;;12.30;99.90;;;;;;4994370;28;20175;-73
2023/03/23 08:34:04;;;;;;;26.23;4.13;;;12.40;99.90;;;;;;4993139;28;20222;-75
2023/03/23 08:36:34;;;;;;;28.20;4.47;;;12.70;99.90;;;;;;4993742;28;20183;-72
2023/03/23 08:38:59;;;;;;;22.80;4.07;;;13.00;99.90;;;;;;4992952;28;20178;-72
2023/03/23 08:41:25;;;;;;;32.57;4.43;;;13.30;99.90;;;;;;4991597;28;20252;-72
2023/03/23 08:43:52;;;;;;;25.53;3.50;;;13.50;99.90;;;;;;4992883;28;20285;-73
2023/03/23 08:46:19;;;;;;;31.40;4.82;;;14.00;99.90;;;;;;4993490;28;20551;-72
2023/03/23 08:48:45;;;;;;;24.90;3.93;;;14.90;99.90;;;;;;4993553;28;20700;-71
2023/03/23 08:51:11;;;;;;;25.77;3.50;;;15.50;99.90;;;;;;4993166;28;20672;-70
2023/03/23 08:53:37;;;;;;;23.02;3.55;;;15.80;99.90;;;;;;4993035;28;20244;-70
2023/03/23 08:56:09;;;;;;;29.38;3.90;;;14.20;99.90;;;;;;4992489;28;20190;-77
2023/03/23 08:58:36;;;;;;;22.98;4.32;;;13.60;99.90;;;;;;4993780;28;20658;-72
2023/03/23 09:01:03;;;;;;;27.43;4.57;;;13.40;99.90;;;;;;4977020;28;20734;-72
2023/03/23 09:03:29;;;;;;;30.20;5.75;;;13.50;99.90;;;;;;4993000;28;20249;-72
2023/03/23 09:06:02;;;;;;;28.00;4.20;;;13.20;99.90;;;;;;4993408;28;20183;-73
2023/03/23 09:08:29;;;;;;;29.53;4.60;;;12.80;99.90;;;;;;4993780;28;20306;-72
2023/03/23 09:11:02;;;;;;;29.00;4.80;;;12.60;99.90;;;;;;4993838;28;20203;-73
2023/03/23 09:13:29;;;;;;;25.97;3.97;;;13.50;99.90;;;;;;4992014;28;20253;-72
2023/03/23 09:15:55;;;;;;;22.70;3.70;;;13.60;99.90;;;;;;4993440;28;20187;-71
2023/03/23 09:18:21;;;;;;;17.88;3.33;;;14.80;99.90;;;;;;4992291;28;20385;-71
2023/03/23 09:20:49;;;;;;;30.85;4.63;;;15.60;99.90;;;;;;4993407;28;20171;-72
2023/03/23 09:23:16;;;;;;;25.95;4.32;;;15.40;99.90;;;;;;4993345;28;20197;-72
2023/03/23 09:25:42;;;;;;;22.02;4.00;;;14.90;99.90;;;;;;4992787;28;20176;-72
2023/03/23 09:28:07;;;;;;;13.95;2.33;;;13.80;99.90;;;;;;4993417;28;20183;-71
2023/03/23 09:30:36;;;;;;;14.40;2.90;;;13.90;99.90;;;;;;4992731;28;20176;-71
2023/03/23 09:33:02;;;;;;;21.27;3.42;;;14.10;99.90;;;;;;4992297;28;20199;-71
2023/03/23 09:35:31;;;;;;;23.35;2.55;;;14.50;99.90;;;;;;4991560;28;20219;-72
2023/03/23 09:38:00;;;;;;;20.88;3.45;;;15.50;99.90;;;;;;4975183;28;20246;-72
2023/03/23 09:40:48;;;;;;;26.10;3.83;;;15.90;99.90;;;;;;4992926;28;20266;-72
2023/03/23 09:43:23;;;;;;;14.55;2.15;;;16.60;99.90;;;;;;4987419;28;20180;-75
2023/03/23 09:45:57;;;;;;;22.08;3.60;;;16.30;99.90;;;;;;4986373;28;20179;-72
2023/03/23 09:48:44;;;;;;;16.60;2.67;;;15.10;99.90;;;;;;4974645;28;20178;-72
2023/03/23 09:51:32;;;;;;;19.27;2.97;;;15.10;99.90;;;;;;4993065;28;20641;-72
2023/03/23 09:54:04;;;;;;;19.08;3.30;;;15.40;99.90;;;;;;4991487;28;20641;-71
2023/03/23 09:56:32;;;;;;;20.50;2.88;;;15.60;99.90;;;;;;4992059;28;20270;-71
2023/03/23 09:59:21;;;;;;;19.75;3.50;;;16.00;99.90;;;;;;4992858;28;20654;-72
2023/03/23 10:01:53;;;;;;;27.08;4.30;;;17.30;99.90;;;;;;4992248;28;20582;-72
2023/03/23 10:04:31;;;;;;;16.98;3.13;;;17.90;99.90;;;;;;4996343;28;20205;-73
2023/03/23 10:07:13;;;;;;;21.70;3.95;;;17.70;99.90;;;;;;4992256;28;20206;-73
2023/03/23 10:09:40;;;;;;;19.63;3.83;;;18.00;99.90;;;;;;4992562;28;20178;-74
2023/03/23 10:12:32;;;;;;;18.45;3.03;;;16.10;99.90;;;;;;4992706;28;20206;-72
2023/03/23 10:15:02;;;;;;;14.93;3.05;;;14.70;99.90;;;;;;4991963;28;20179;-72
2023/03/23 10:17:30;;;;;;;23.25;3.75;;;14.00;99.90;;;;;;4974976;28;20195;-72
2023/03/23 10:20:12;;;;;;;22.40;3.60;;;14.10;99.90;;;;;;4974915;28;20172;-79
2023/03/23 10:23:09;;;;;;;23.13;3.20;;;14.30;99.90;;;;;;4992496;28;20207;-73
2023/03/23 10:25:37;;;;;;;15.90;3.13;;;17.00;99.90;;;;;;4991412;28;20191;-74
2023/03/23 10:28:13;;;;;;;16.65;2.08;;;17.70;99.90;;;;;;4992262;28;20187;-73
2023/03/23 10:30:58;;;;;;;22.05;3.67;;;16.50;99.90;;;;;;4991950;28;20174;-73
2023/03/23 10:33:46;;;;;;;10.13;2.47;;;17.00;99.90;;;;;;4977726;28;20594;-74
2023/03/23 10:36:20;;;;;;;12.38;2.38;;;15.20;99.90;;;;;;4991149;28;20187;-73
2023/03/23 10:38:52;;;;;;;27.48;4.50;;;14.50;99.90;;;;;;4992074;28;20534;-73
2023/03/23 10:41:19;;;;;;;32.47;5.18;;;14.20;99.90;;;;;;4974558;28;20796;-73
2023/03/23 10:43:49;;;;;;;13.45;2.53;;;13.90;99.90;;;;;;4992156;28;20190;-73
2023/03/23 10:46:39;;;;;;;16.30;3.13;;;13.60;99.90;;;;;;4991285;28;20167;-73
2023/03/23 10:49:11;;;;;;;16.13;3.37;;;13.80;99.90;;;;;;4992145;28;20175;-73
2023/03/23 10:51:43;;;;;;;16.33;3.47;;;15.10;99.90;;;;;;4991970;28;20176;-73
2023/03/23 10:54:09;;;;;;;19.30;3.50;;;15.10;99.90;;;;;;4991970;28;20570;-73
2023/03/23 10:56:40;;;;;;;21.13;3.22;;;14.70;99.90;;;;;;4991907;28;20179;-73
2023/03/23 10:59:14;;;;;;;23.00;3.22;;;14.50;99.90;;;;;;4991869;28;20261;-74
2023/03/23 11:01:44;;;;;;;20.90;3.60;;;14.30;99.90;;;;;;4991932;28;20199;-73
2023/03/23 11:04:15;;;;;;;22.38;3.67;;;14.30;99.90;;;;;;4991944;28;20167;-73
2023/03/23 11:06:50;;;;;;;21.77;4.18;;;15.20;99.90;;;;;;4991810;28;20179;-73
2023/03/23 11:09:18;;;;;;;26.00;3.85;;;16.60;99.90;;;;;;4991733;28;20163;-73
2023/03/23 11:11:49;;;;;;;23.60;3.97;;;17.20;99.90;;;;;;4991762;28;20183;-73
2023/03/23 11:14:38;;;;;;;26.60;4.10;;;19.50;99.90;;;;;;4991594;28;20175;-73
2023/03/23 11:17:19;;;;;;;20.45;3.97;;;19.30;99.90;;;;;;4991653;28;20171;-74
2023/03/23 11:19:45;;;;;;;11.77;3.05;;;20.10;99.90;;;;;;4991538;28;20174;-73
2023/03/23 11:22:19;;;;;;;16.42;3.55;;;19.50;99.90;;;;;;4991657;28;20223;-74
2023/03/23 11:24:52;;;;;;;24.20;4.35;;;18.50;99.90;;;;;;4991714;28;20201;-74
2023/03/23 11:27:18;;;;;;;17.98;3.95;;;19.40;99.90;;;;;;4991624;28;20177;-73
2023/03/23 11:30:08;;;;;;;22.52;2.92;;;19.40;99.90;;;;;;4991644;28;20201;-74
2023/03/23 11:32:35;;;;;;;13.63;3.25;;;19.40;99.90;;;;;;4991569;28;20697;-74
2023/03/23 11:35:05;;;;;;;19.30;3.58;;;19.20;99.90;;;;;;4991293;28;20769;-74
2023/03/23 11:37:53;;;;;;;19.55;3.90;;;20.20;99.90;;;;;;4991416;28;20665;-75
2023/03/23 11:40:22;;;;;;;12.60;2.92;;;20.30;99.90;;;;;;4991523;28;20201;-74
2023/03/23 11:42:56;;;;;;;13.00;2.85;;;19.80;99.90;;;;;;4991452;28;20759;-74
2023/03/23 11:45:36;;;;;;;24.13;3.90;;;18.90;99.90;;;;;;4991276;28;20170;-75
2023/03/23 11:48:32;;;;;;;14.32;2.08;;;18.90;99.90;;;;;;4991359;28;20175;-74
2023/03/23 11:51:03;;;;;;;18.35;3.55;;;17.20;99.90;;;;;;4991294;28;20171;-74
2023/03/23 11:53:49;;;;;;;22.48;3.40;;;16.90;99.90;;;;;;4991272;28;20178;-74
2023/03/23 11:56:19;;;;;;;15.52;2.50;;;16.30;99.90;;;;;;4991663;28;20183;-74
2023/03/23 11:58:45;;;;;;;16.17;3.47;;;15.90;99.90;;;;;;4995139;28;20164;-73
2023/03/23 12:01:15;;;;;;;14.75;2.92;;;16.10;99.90;;;;;;4995082;28;20191;-74
2023/03/23 12:03:59;;;;;;;10.77;2.08;;;17.30;99.90;;;;;;4995208;28;20196;-73
2023/03/23 12:06:43;;;;;;;16.33;3.33;;;16.30;99.90;;;;;;4994963;28;20190;-73
2023/03/23 12:09:27;;;;;;;20.23;3.28;;;15.50;99.90;;;;;;4994965;28;20649;-74
2023/03/23 12:12:18;;;;;;;24.52;3.63;;;15.30;99.90;;;;;;4994959;28;20179;-74
2023/03/23 12:14:56;;;;;;;16.38;3.45;;;15.10;99.90;;;;;;4967129;28;20278;-74
2023/03/23 12:17:33;;;;;;;21.13;3.65;;;15.00;99.90;;;;;;4977379;28;20182;-74
2023/03/23 12:20:45;;;;;;;20.00;3.25;;;15.20;99.90;;;;;;4994728;28;20699;-73
2023/03/23 12:23:32;;;;;;;23.75;3.30;;;15.20;99.90;;;;;;4948726;28;20226;-75
2023/03/23 12:26:07;;;;;;;18.80;3.08;;;15.00;99.90;;;;;;4993602;28;20202;-74
2023/03/23 12:28:41;;;;;;;21.92;3.42;;;15.00;99.90;;;;;;4994290;28;20570;-75
2023/03/23 12:31:39;;;;;;;9.02;1.85;;;14.90;99.90;;;;;;4993857;28;20190;-72
2023/03/23 12:34:47;;;;;;;28.88;4.45;;;14.90;99.90;;;;;;4993420;28;20222;-73
2023/03/23 12:37:28;;;;;;;20.27;3.40;;;15.10;99.90;;;;;;4993612;28;20186;-73
2023/03/23 12:40:08;;;;;;;20.75;4.30;;;15.20;99.90;;;;;;4994192;28;20186;-73
2023/03/23 12:43:05;;;;;;;24.38;4.07;;;15.50;99.90;;;;;;4993854;28;20225;-74
2023/03/23 12:46:29;;;;;;;21.52;3.50;;;15.20;99.90;;;;;;4993595;28;20257;-72
2023/03/23 12:49:22;;;;;;;18.20;2.90;;;15.10;99.90;;;;;;4933914;29;20261;-73
2023/03/23 12:52:18;;;;;;;19.70;3.83;;;14.90;99.90;;;;;;4933510;29;20185;-73
2023/03/23 12:55:02;;;;;;;18.17;3.47;;;14.90;99.90;;;;;;4984581;28;20191;-74
2023/03/23 12:57:30;;;;;;;17.05;3.50;;;14.80;99.90;;;;;;4993493;28;20175;-76
2023/03/23 13:00:05;;;;;;;27.95;4.25;;;14.60;99.90;;;;;;4993459;28;20229;-74
2023/03/23 13:02:36;;;;;;;30.35;3.95;;;14.60;99.90;;;;;;4975517;28;20687;-75
2023/03/23 13:05:25;;;;;;;19.42;3.70;;;14.60;99.90;;;;;;4991921;28;20176;-74